sensor_id;sensor_type;location;lat;lon;timestamp;pressure;altitude;pressure_sealevel;temperature;humidity
4570;BME280;2297;51.442;6.996;2023-03-14T00:00:09;97820.22;;;11.64;53.09
4570;BME280;2297;51.442;6.996;2023-03-14T00:02:37;97832.31;;;11.81;52.13
4570;BME280;2297;51.442;6.996;2023-03-14T00:05:04;97827.16;;;11.52;52.79
4570;BME280;2297;51.442;6.996;2023-03-14T00:07:33;97813.06;;;11.52;52.80
4570;BME280;2297;51.442;6.996;2023-03-14T00:10:02;97806.47;;;11.59;52.78
4570;BME280;2297;51.442;6.996;2023-03-14T00:12:31;97800.63;;;11.54;52.91
4570;BME280;2297;51.442;6.996;2023-03-14T00:14:59;97774.75;;;11.72;52.08
4570;BME280;2297;51.442;6.996;2023-03-14T00:17:28;97773.38;;;11.66;52.38
4570;BME280;2297;51.442;6.996;2023-03-14T00:19:55;97770.28;;;11.59;51.79
4570;BME280;2297;51.442;6.996;2023-03-14T00:22:22;97769.13;;;11.91;51.51
4570;BME280;2297;51.442;6.996;2023-03-14T00:24:49;97758.06;;;11.71;51.96
4570;BME280;2297;51.442;6.996;2023-03-14T00:27:16;97759.09;;;11.96;51.75
4570;BME280;2297;51.442;6.996;2023-03-14T00:29:43;97764.47;;;12.07;51.95
4570;BME280;2297;51.442;6.996;2023-03-14T00:32:33;97785.38;;;11.85;52.16
4570;BME280;2297;51.442;6.996;2023-03-14T00:34:59;97795.72;;;11.75;51.86
4570;BME280;2297;51.442;6.996;2023-03-14T00:37:26;97796.91;;;11.84;52.21
4570;BME280;2297;51.442;6.996;2023-03-14T00:39:53;97806.75;;;11.81;52.02
4570;BME280;2297;51.442;6.996;2023-03-14T00:42:19;97844.19;;;11.61;53.20
4570;BME280;2297;51.442;6.996;2023-03-14T00:44:46;97846.25;;;11.70;54.99
4570;BME280;2297;51.442;6.996;2023-03-14T00:47:12;97867.09;;;10.75;57.17
4570;BME280;2297;51.442;6.996;2023-03-14T00:49:40;97866.63;;;11.12;58.23
4570;BME280;2297;51.442;6.996;2023-03-14T00:52:08;97856.53;;;11.19;59.72
4570;BME280;2297;51.442;6.996;2023-03-14T00:54:35;97848.25;;;11.10;60.61
4570;BME280;2297;51.442;6.996;2023-03-14T00:57:02;97842.09;;;10.81;61.93
4570;BME280;2297;51.442;6.996;2023-03-14T00:59:28;97838.78;;;10.92;61.66
4570;BME280;2297;51.442;6.996;2023-03-14T01:01:55;97833.28;;;10.37;61.49
4570;BME280;2297;51.442;6.996;2023-03-14T01:04:21;97828.13;;;10.50;61.77
4570;BME280;2297;51.442;6.996;2023-03-14T01:06:49;97836.13;;;10.48;60.56
4570;BME280;2297;51.442;6.996;2023-03-14T01:09:16;97834.97;;;10.38;60.05
4570;BME280;2297;51.442;6.996;2023-03-14T01:11:43;97823.28;;;10.42;59.99
4570;BME280;2297;51.442;6.996;2023-03-14T01:14:11;97841.25;;;10.95;58.58
4570;BME280;2297;51.442;6.996;2023-03-14T01:16:38;97826.69;;;10.59;59.52
4570;BME280;2297;51.442;6.996;2023-03-14T01:19:06;97825.34;;;10.37;60.41
4570;BME280;2297;51.442;6.996;2023-03-14T01:21:34;97825.03;;;10.58;59.47
4570;BME280;2297;51.442;6.996;2023-03-14T01:24:04;97832.19;;;10.70;59.17
4570;BME280;2297;51.442;6.996;2023-03-14T01:26:33;97830.53;;;10.39;60.23
4570;BME280;2297;51.442;6.996;2023-03-14T01:29:01;97835.59;;;10.58;59.75
4570;BME280;2297;51.442;6.996;2023-03-14T01:31:28;97829.31;;;10.44;60.03
4570;BME280;2297;51.442;6.996;2023-03-14T01:33:55;97825.13;;;10.26;61.09
4570;BME280;2297;51.442;6.996;2023-03-14T01:36:22;97833.88;;;10.12;61.33
4570;BME280;2297;51.442;6.996;2023-03-14T01:38:49;97822.63;;;10.08;61.87
4570;BME280;2297;51.442;6.996;2023-03-14T01:41:18;97816.13;;;9.84;62.59
4570;BME280;2297;51.442;6.996;2023-03-14T01:43:45;97814.69;;;9.94;62.70
4570;BME280;2297;51.442;6.996;2023-03-14T01:46:20;97806.13;;;10.21;62.11
4570;BME280;2297;51.442;6.996;2023-03-14T01:48:54;97803.53;;;10.19;61.64
4570;BME280;2297;51.442;6.996;2023-03-14T01:51:25;97802.69;;;10.19;61.54
4570;BME280;2297;51.442;6.996;2023-03-14T01:53:55;97805.50;;;10.01;62.19
4570;BME280;2297;51.442;6.996;2023-03-14T01:56:27;97809.63;;;10.05;61.69
4570;BME280;2297;51.442;6.996;2023-03-14T01:58:54;97805.25;;;10.20;60.90
4570;BME280;2297;51.442;6.996;2023-03-14T02:01:23;97800.69;;;10.08;61.37
4570;BME280;2297;51.442;6.996;2023-03-14T02:03:54;97811.50;;;10.34;60.86
4570;BME280;2297;51.442;6.996;2023-03-14T02:06:23;97803.44;;;10.06;61.20
4570;BME280;2297;51.442;6.996;2023-03-14T02:08:50;97799.00;;;10.52;59.63
4570;BME280;2297;51.442;6.996;2023-03-14T02:11:17;97792.00;;;10.51;59.38
4570;BME280;2297;51.442;6.996;2023-03-14T02:13:46;97795.28;;;9.95;60.60
4570;BME280;2297;51.442;6.996;2023-03-14T02:16:13;97795.38;;;10.24;60.77
4570;BME280;2297;51.442;6.996;2023-03-14T02:18:39;97797.97;;;10.09;60.00
4570;BME280;2297;51.442;6.996;2023-03-14T02:21:12;97798.31;;;10.03;60.82
4570;BME280;2297;51.442;6.996;2023-03-14T02:23:45;97783.53;;;9.85;61.42
4570;BME280;2297;51.442;6.996;2023-03-14T02:26:20;97790.66;;;10.29;60.04
4570;BME280;2297;51.442;6.996;2023-03-14T02:28:49;97797.19;;;10.07;60.59
4570;BME280;2297;51.442;6.996;2023-03-14T02:31:18;97792.91;;;10.35;59.81
4570;BME280;2297;51.442;6.996;2023-03-14T02:33:46;97777.47;;;10.29;59.77
4570;BME280;2297;51.442;6.996;2023-03-14T02:36:14;97781.69;;;9.87;61.11
4570;BME280;2297;51.442;6.996;2023-03-14T02:38:46;97785.72;;;10.08;60.71
4570;BME280;2297;51.442;6.996;2023-03-14T02:41:14;97802.53;;;9.75;61.64
4570;BME280;2297;51.442;6.996;2023-03-14T02:43:41;97805.31;;;10.04;60.88
4570;BME280;2297;51.442;6.996;2023-03-14T02:46:10;97813.78;;;10.09;60.70
4570;BME280;2297;51.442;6.996;2023-03-14T02:48:40;97786.13;;;10.31;60.44
4570;BME280;2297;51.442;6.996;2023-03-14T02:51:08;97801.56;;;10.23;60.12
4570;BME280;2297;51.442;6.996;2023-03-14T02:53:36;97793.25;;;10.00;60.58
4570;BME280;2297;51.442;6.996;2023-03-14T02:56:04;97792.31;;;10.01;60.83
4570;BME280;2297;51.442;6.996;2023-03-14T02:58:31;97801.25;;;9.82;61.34
4570;BME280;2297;51.442;6.996;2023-03-14T03:00:58;97791.53;;;9.99;60.87
4570;BME280;2297;51.442;6.996;2023-03-14T03:03:26;97768.81;;;10.27;59.51
4570;BME280;2297;51.442;6.996;2023-03-14T03:05:54;97770.78;;;9.93;60.85
4570;BME280;2297;51.442;6.996;2023-03-14T03:08:23;97778.09;;;9.88;60.53
4570;BME280;2297;51.442;6.996;2023-03-14T03:10:51;97765.22;;;10.28;59.35
4570;BME280;2297;51.442;6.996;2023-03-14T03:13:18;97763.53;;;10.27;59.19
4570;BME280;2297;51.442;6.996;2023-03-14T03:15:45;97761.06;;;10.09;59.92
4570;BME280;2297;51.442;6.996;2023-03-14T03:18:11;97753.69;;;10.00;59.86
4570;BME280;2297;51.442;6.996;2023-03-14T03:20:45;97747.88;;;10.09;59.54
4570;BME280;2297;51.442;6.996;2023-03-14T03:23:12;97739.50;;;10.17;59.37
4570;BME280;2297;51.442;6.996;2023-03-14T03:25:39;97736.00;;;10.17;59.54
4570;BME280;2297;51.442;6.996;2023-03-14T03:28:05;97750.00;;;10.47;58.57
4570;BME280;2297;51.442;6.996;2023-03-14T03:30:34;97740.19;;;9.90;60.32
4570;BME280;2297;51.442;6.996;2023-03-14T03:33:03;97732.53;;;10.16;59.75
4570;BME280;2297;51.442;6.996;2023-03-14T03:35:29;97729.06;;;10.30;59.23
4570;BME280;2297;51.442;6.996;2023-03-14T03:37:57;97744.00;;;10.15;59.58
4570;BME280;2297;51.442;6.996;2023-03-14T03:40:24;97743.72;;;10.05;59.65
4570;BME280;2297;51.442;6.996;2023-03-14T03:42:50;97755.19;;;10.04;59.59
4570;BME280;2297;51.442;6.996;2023-03-14T03:45:17;97755.13;;;9.90;60.66
4570;BME280;2297;51.442;6.996;2023-03-14T03:47:44;97755.03;;;9.61;62.12
4570;BME280;2297;51.442;6.996;2023-03-14T03:50:10;97745.50;;;9.89;62.29
4570;BME280;2297;51.442;6.996;2023-03-14T03:52:37;97736.97;;;10.16;62.03
4570;BME280;2297;51.442;6.996;2023-03-14T03:55:05;97743.75;;;10.20;61.88
4570;BME280;2297;51.442;6.996;2023-03-14T03:57:32;97741.75;;;9.78;62.84
4570;BME280;2297;51.442;6.996;2023-03-14T03:59:59;97735.75;;;9.91;63.12
4570;BME280;2297;51.442;6.996;2023-03-14T04:02:25;97753.88;;;9.97;62.71
4570;BME280;2297;51.442;6.996;2023-03-14T04:04:52;97737.00;;;9.69;62.78
4570;BME280;2297;51.442;6.996;2023-03-14T04:07:18;97745.06;;;9.66;62.79
4570;BME280;2297;51.442;6.996;2023-03-14T04:09:45;97750.13;;;9.55;63.15
4570;BME280;2297;51.442;6.996;2023-03-14T04:12:13;97751.59;;;9.75;62.74
4570;BME280;2297;51.442;6.996;2023-03-14T04:14:39;97747.00;;;9.78;62.48
4570;BME280;2297;51.442;6.996;2023-03-14T04:17:06;97746.81;;;9.81;62.64
4570;BME280;2297;51.442;6.996;2023-03-14T04:19:33;97760.16;;;9.48;63.92
4570;BME280;2297;51.442;6.996;2023-03-14T04:22:00;97751.19;;;9.36;63.76
4570;BME280;2297;51.442;6.996;2023-03-14T04:24:26;97764.56;;;9.47;63.50
4570;BME280;2297;51.442;6.996;2023-03-14T04:26:53;97754.75;;;9.03;64.82
4570;BME280;2297;51.442;6.996;2023-03-14T04:29:21;97749.94;;;9.58;63.92
4570;BME280;2297;51.442;6.996;2023-03-14T04:31:48;97749.34;;;9.53;62.62
4570;BME280;2297;51.442;6.996;2023-03-14T04:34:14;97752.03;;;9.67;62.43
4570;BME280;2297;51.442;6.996;2023-03-14T04:36:41;97749.06;;;9.73;62.29
4570;BME280;2297;51.442;6.996;2023-03-14T04:39:07;97742.38;;;9.98;61.26
4570;BME280;2297;51.442;6.996;2023-03-14T04:41:34;97742.44;;;9.66;61.77
4570;BME280;2297;51.442;6.996;2023-03-14T04:44:01;97733.94;;;9.61;62.36
4570;BME280;2297;51.442;6.996;2023-03-14T04:46:29;97730.22;;;9.65;62.46
4570;BME280;2297;51.442;6.996;2023-03-14T04:48:55;97742.88;;;9.28;62.78
4570;BME280;2297;51.442;6.996;2023-03-14T04:51:22;97738.34;;;9.14;63.23
4570;BME280;2297;51.442;6.996;2023-03-14T04:53:52;97742.28;;;9.23;63.56
4570;BME280;2297;51.442;6.996;2023-03-14T04:56:19;97732.22;;;9.29;63.72
4570;BME280;2297;51.442;6.996;2023-03-14T04:58:46;97725.78;;;9.03;65.00
4570;BME280;2297;51.442;6.996;2023-03-14T05:01:13;97733.00;;;9.15;64.66
4570;BME280;2297;51.442;6.996;2023-03-14T05:03:41;97736.41;;;9.02;65.70
4570;BME280;2297;51.442;6.996;2023-03-14T05:06:08;97722.81;;;9.25;65.31
4570;BME280;2297;51.442;6.996;2023-03-14T05:08:35;97712.56;;;9.51;64.53
4570;BME280;2297;51.442;6.996;2023-03-14T05:11:01;97708.06;;;9.07;65.59
4570;BME280;2297;51.442;6.996;2023-03-14T05:13:29;97708.88;;;8.91;66.53
4570;BME280;2297;51.442;6.996;2023-03-14T05:16:03;97697.16;;;9.13;65.92
4570;BME280;2297;51.442;6.996;2023-03-14T05:18:30;97697.44;;;9.55;64.86
4570;BME280;2297;51.442;6.996;2023-03-14T05:20:58;97699.28;;;9.53;64.44
4570;BME280;2297;51.442;6.996;2023-03-14T05:23:25;97686.88;;;9.55;64.25
4570;BME280;2297;51.442;6.996;2023-03-14T05:25:52;97676.31;;;9.40;64.74
4570;BME280;2297;51.442;6.996;2023-03-14T05:28:19;97677.19;;;9.55;64.06
4570;BME280;2297;51.442;6.996;2023-03-14T05:30:46;97665.22;;;9.80;64.07
4570;BME280;2297;51.442;6.996;2023-03-14T05:33:12;97665.66;;;9.72;64.30
4570;BME280;2297;51.442;6.996;2023-03-14T05:35:40;97664.91;;;9.85;64.19
4570;BME280;2297;51.442;6.996;2023-03-14T05:38:08;97677.34;;;9.82;64.13
4570;BME280;2297;51.442;6.996;2023-03-14T05:40:34;97668.19;;;9.74;64.34
4570;BME280;2297;51.442;6.996;2023-03-14T05:43:01;97666.44;;;9.74;64.37
4570;BME280;2297;51.442;6.996;2023-03-14T05:45:28;97662.44;;;9.97;64.02
4570;BME280;2297;51.442;6.996;2023-03-14T05:48:25;97669.25;;;9.86;64.14
4570;BME280;2297;51.442;6.996;2023-03-14T05:50:54;97654.16;;;9.59;65.33
4570;BME280;2297;51.442;6.996;2023-03-14T05:53:23;97666.72;;;9.84;64.69
4570;BME280;2297;51.442;6.996;2023-03-14T05:55:51;97658.22;;;10.09;64.21
4570;BME280;2297;51.442;6.996;2023-03-14T05:58:18;97651.06;;;9.97;64.16
4570;BME280;2297;51.442;6.996;2023-03-14T06:00:45;97654.63;;;9.96;64.04
4570;BME280;2297;51.442;6.996;2023-03-14T06:03:11;97656.88;;;9.27;65.82
4570;BME280;2297;51.442;6.996;2023-03-14T06:05:38;97641.63;;;9.48;65.66
4570;BME280;2297;51.442;6.996;2023-03-14T06:08:05;97641.06;;;9.57;65.51
4570;BME280;2297;51.442;6.996;2023-03-14T06:10:34;97642.88;;;9.71;65.45
4570;BME280;2297;51.442;6.996;2023-03-14T06:13:02;97648.72;;;9.15;67.17
4570;BME280;2297;51.442;6.996;2023-03-14T06:15:29;97648.56;;;9.19;67.36
4570;BME280;2297;51.442;6.996;2023-03-14T06:17:55;97645.97;;;9.33;67.15
4570;BME280;2297;51.442;6.996;2023-03-14T06:20:22;97651.03;;;9.52;66.08
4570;BME280;2297;51.442;6.996;2023-03-14T06:22:49;97647.56;;;9.66;65.78
4570;BME280;2297;51.442;6.996;2023-03-14T06:25:15;97651.16;;;9.65;65.88
4570;BME280;2297;51.442;6.996;2023-03-14T06:27:43;97656.25;;;9.68;65.67
4570;BME280;2297;51.442;6.996;2023-03-14T06:30:11;97668.44;;;9.55;65.97
4570;BME280;2297;51.442;6.996;2023-03-14T06:32:37;97666.25;;;9.77;65.44
4570;BME280;2297;51.442;6.996;2023-03-14T06:35:05;97654.44;;;9.99;64.62
4570;BME280;2297;51.442;6.996;2023-03-14T06:37:32;97661.53;;;9.82;65.41
4570;BME280;2297;51.442;6.996;2023-03-14T06:43:21;97665.53;;;9.29;66.63
4570;BME280;2297;51.442;6.996;2023-03-14T06:45:48;97663.38;;;9.66;65.70
4570;BME280;2297;51.442;6.996;2023-03-14T06:48:15;97673.66;;;9.40;66.40
4570;BME280;2297;51.442;6.996;2023-03-14T06:50:42;97671.56;;;9.61;66.10
4570;BME280;2297;51.442;6.996;2023-03-14T06:53:08;97664.53;;;9.76;65.66
4570;BME280;2297;51.442;6.996;2023-03-14T06:55:35;97668.28;;;9.72;66.02
4570;BME280;2297;51.442;6.996;2023-03-14T06:58:02;97677.94;;;9.88;65.13
4570;BME280;2297;51.442;6.996;2023-03-14T07:00:30;97672.53;;;10.05;64.72
4570;BME280;2297;51.442;6.996;2023-03-14T07:02:57;97667.03;;;9.94;65.15
4570;BME280;2297;51.442;6.996;2023-03-14T07:05:23;97662.66;;;9.78;65.49
4570;BME280;2297;51.442;6.996;2023-03-14T07:07:50;97676.91;;;9.90;64.73
4570;BME280;2297;51.442;6.996;2023-03-14T07:10:16;97677.03;;;10.03;64.90
4570;BME280;2297;51.442;6.996;2023-03-14T07:12:43;97669.13;;;10.18;64.45
4570;BME280;2297;51.442;6.996;2023-03-14T07:15:10;97674.44;;;9.87;65.59
4570;BME280;2297;51.442;6.996;2023-03-14T07:17:38;97678.94;;;10.01;64.97
4570;BME280;2297;51.442;6.996;2023-03-14T07:20:06;97688.16;;;9.78;66.00
4570;BME280;2297;51.442;6.996;2023-03-14T07:22:34;97685.31;;;9.97;65.28
4570;BME280;2297;51.442;6.996;2023-03-14T07:25:01;97677.56;;;9.94;65.35
4570;BME280;2297;51.442;6.996;2023-03-14T07:27:27;97678.16;;;10.13;64.63
4570;BME280;2297;51.442;6.996;2023-03-14T07:29:54;97679.78;;;10.30;64.12
4570;BME280;2297;51.442;6.996;2023-03-14T07:32:20;97678.06;;;10.01;64.95
4570;BME280;2297;51.442;6.996;2023-03-14T07:34:48;97681.84;;;10.40;63.94
4570;BME280;2297;51.442;6.996;2023-03-14T07:37:15;97682.41;;;10.30;63.82
4570;BME280;2297;51.442;6.996;2023-03-14T07:39:42;97686.47;;;10.51;63.77
4570;BME280;2297;51.442;6.996;2023-03-14T07:42:08;97687.22;;;10.09;65.25
4570;BME280;2297;51.442;6.996;2023-03-14T07:44:36;97688.25;;;10.36;64.28
4570;BME280;2297;51.442;6.996;2023-03-14T07:47:02;97692.56;;;10.51;64.34
4570;BME280;2297;51.442;6.996;2023-03-14T07:49:29;97697.38;;;10.01;65.96
4570;BME280;2297;51.442;6.996;2023-03-14T07:51:57;97712.66;;;10.25;65.78
4570;BME280;2297;51.442;6.996;2023-03-14T07:54:24;97697.31;;;9.87;67.12
4570;BME280;2297;51.442;6.996;2023-03-14T07:56:51;97703.19;;;9.61;68.10
4570;BME280;2297;51.442;6.996;2023-03-14T07:59:18;97694.50;;;9.90;67.39
4570;BME280;2297;51.442;6.996;2023-03-14T08:01:45;97699.25;;;9.99;67.57
4570;BME280;2297;51.442;6.996;2023-03-14T08:04:11;97692.75;;;10.19;66.98
4570;BME280;2297;51.442;6.996;2023-03-14T08:06:38;97699.53;;;10.23;66.82
4570;BME280;2297;51.442;6.996;2023-03-14T08:09:06;97697.84;;;10.51;66.07
4570;BME280;2297;51.442;6.996;2023-03-14T08:11:33;97710.75;;;10.27;65.98
4570;BME280;2297;51.442;6.996;2023-03-14T08:14:00;97703.31;;;10.48;65.88
4570;BME280;2297;51.442;6.996;2023-03-14T08:16:26;97706.22;;;10.72;65.69
4570;BME280;2297;51.442;6.996;2023-03-14T08:18:53;97708.91;;;10.58;66.28
4570;BME280;2297;51.442;6.996;2023-03-14T08:21:20;97706.72;;;10.50;66.57
4570;BME280;2297;51.442;6.996;2023-03-14T08:23:46;97716.50;;;10.34;66.99
4570;BME280;2297;51.442;6.996;2023-03-14T08:26:14;97711.50;;;10.72;66.00
4570;BME280;2297;51.442;6.996;2023-03-14T08:28:41;97711.34;;;10.46;66.87
4570;BME280;2297;51.442;6.996;2023-03-14T08:31:07;97710.56;;;10.44;66.83
4570;BME280;2297;51.442;6.996;2023-03-14T08:33:34;97708.22;;;10.25;67.16
4570;BME280;2297;51.442;6.996;2023-03-14T08:36:01;97714.13;;;10.72;66.37
4570;BME280;2297;51.442;6.996;2023-03-14T08:38:28;97715.75;;;10.60;66.48
4570;BME280;2297;51.442;6.996;2023-03-14T08:40:56;97713.22;;;10.59;66.68
4570;BME280;2297;51.442;6.996;2023-03-14T08:43:24;97709.16;;;10.82;65.95
4570;BME280;2297;51.442;6.996;2023-03-14T08:46:10;97713.56;;;10.81;66.14
4570;BME280;2297;51.442;6.996;2023-03-14T08:48:36;97719.06;;;10.35;67.17
4570;BME280;2297;51.442;6.996;2023-03-14T08:51:07;97716.63;;;10.32;67.68
4570;BME280;2297;51.442;6.996;2023-03-14T08:53:34;97722.72;;;10.61;66.74
4570;BME280;2297;51.442;6.996;2023-03-14T08:56:00;97734.88;;;10.93;66.54
4570;BME280;2297;51.442;6.996;2023-03-14T08:58:28;97727.38;;;10.43;68.00
4570;BME280;2297;51.442;6.996;2023-03-14T09:00:55;97734.63;;;10.83;67.08
4570;BME280;2297;51.442;6.996;2023-03-14T09:03:22;97736.31;;;10.26;67.01
4570;BME280;2297;51.442;6.996;2023-03-14T09:06:19;97752.41;;;10.36;66.50
4570;BME280;2297;51.442;6.996;2023-03-14T09:08:49;97740.63;;;10.13;66.69
4570;BME280;2297;51.442;6.996;2023-03-14T09:11:16;97746.00;;;10.11;67.00
4570;BME280;2297;51.442;6.996;2023-03-14T09:13:45;97750.34;;;10.27;65.93
4570;BME280;2297;51.442;6.996;2023-03-14T09:16:11;97751.81;;;10.17;66.71
4570;BME280;2297;51.442;6.996;2023-03-14T09:21:51;97763.34;;;10.16;67.73
4570;BME280;2297;51.442;6.996;2023-03-14T09:24:18;97822.66;;;9.92;68.51
4570;BME280;2297;51.442;6.996;2023-03-14T09:26:45;97852.47;;;9.62;67.30
4570;BME280;2297;51.442;6.996;2023-03-14T09:29:13;97854.00;;;9.01;66.10
4570;BME280;2297;51.442;6.996;2023-03-14T09:31:39;97862.69;;;8.70;66.86
4570;BME280;2297;51.442;6.996;2023-03-14T09:34:06;97863.66;;;8.85;67.34
4570;BME280;2297;51.442;6.996;2023-03-14T09:36:33;97869.09;;;8.81;67.01
4570;BME280;2297;51.442;6.996;2023-03-14T09:39:00;97881.25;;;8.49;67.13
4570;BME280;2297;51.442;6.996;2023-03-14T09:41:29;97904.84;;;8.51;67.65
4570;BME280;2297;51.442;6.996;2023-03-14T09:44:01;97908.09;;;8.21;67.01
4570;BME280;2297;51.442;6.996;2023-03-14T09:46:32;97911.16;;;8.64;66.18
4570;BME280;2297;51.442;6.996;2023-03-14T09:49:00;97933.66;;;8.71;65.97
4570;BME280;2297;51.442;6.996;2023-03-14T09:51:27;97938.19;;;8.50;66.81
4570;BME280;2297;51.442;6.996;2023-03-14T09:53:55;97944.28;;;8.33;66.86
4570;BME280;2297;51.442;6.996;2023-03-14T09:56:25;97956.78;;;8.47;66.26
4570;BME280;2297;51.442;6.996;2023-03-14T09:58:55;97969.69;;;8.52;65.82
4570;BME280;2297;51.442;6.996;2023-03-14T10:01:25;97975.50;;;8.58;65.68
4570;BME280;2297;51.442;6.996;2023-03-14T10:03:56;97987.47;;;8.46;65.14
4570;BME280;2297;51.442;6.996;2023-03-14T10:06:26;97994.81;;;8.57;65.17
4570;BME280;2297;51.442;6.996;2023-03-14T10:08:54;98017.41;;;8.61;63.71
4570;BME280;2297;51.442;6.996;2023-03-14T10:11:22;98022.22;;;8.90;63.48
4570;BME280;2297;51.442;6.996;2023-03-14T10:14:01;98028.22;;;9.27;64.03
4570;BME280;2297;51.442;6.996;2023-03-14T10:16:30;98046.69;;;9.27;63.44
4570;BME280;2297;51.442;6.996;2023-03-14T10:19:04;98044.00;;;9.44;63.48
4570;BME280;2297;51.442;6.996;2023-03-14T10:21:36;98047.00;;;8.86;62.19
4570;BME280;2297;51.442;6.996;2023-03-14T10:24:16;98054.72;;;8.71;62.75
4570;BME280;2297;51.442;6.996;2023-03-14T10:26:43;98064.91;;;8.77;62.65
4570;BME280;2297;51.442;6.996;2023-03-14T10:32:37;98094.28;;;8.12;64.42
4570;BME280;2297;51.442;6.996;2023-03-14T10:35:22;98107.75;;;8.62;63.47
4570;BME280;2297;51.442;6.996;2023-03-14T10:37:53;98127.66;;;8.10;64.36
4570;BME280;2297;51.442;6.996;2023-03-14T10:40:26;98137.88;;;8.55;63.98
4570;BME280;2297;51.442;6.996;2023-03-14T10:42:55;98152.72;;;8.76;63.17
4570;BME280;2297;51.442;6.996;2023-03-14T10:45:31;98161.44;;;8.58;62.26
4570;BME280;2297;51.442;6.996;2023-03-14T10:48:05;98176.09;;;9.02;62.22
4570;BME280;2297;51.442;6.996;2023-03-14T10:50:57;98187.41;;;8.85;60.98
4570;BME280;2297;51.442;6.996;2023-03-14T10:53:24;98212.50;;;8.54;59.60
4570;BME280;2297;51.442;6.996;2023-03-14T10:55:51;98232.69;;;8.13;59.71
4570;BME280;2297;51.442;6.996;2023-03-14T10:58:23;98243.53;;;8.45;58.82
4570;BME280;2297;51.442;6.996;2023-03-14T11:00:54;98247.13;;;8.44;58.54
4570;BME280;2297;51.442;6.996;2023-03-14T11:03:24;98259.06;;;8.52;57.78
4570;BME280;2297;51.442;6.996;2023-03-14T11:05:57;98255.78;;;8.46;57.19
4570;BME280;2297;51.442;6.996;2023-03-14T11:08:27;98283.69;;;8.09;57.72
4570;BME280;2297;51.442;6.996;2023-03-14T11:11:06;98304.19;;;8.42;56.88
4570;BME280;2297;51.442;6.996;2023-03-14T11:13:40;98303.81;;;8.10;57.10
4570;BME280;2297;51.442;6.996;2023-03-14T11:16:16;98317.47;;;8.19;56.61
4570;BME280;2297;51.442;6.996;2023-03-14T11:18:54;98338.25;;;8.04;56.73
4570;BME280;2297;51.442;6.996;2023-03-14T11:21:32;98344.91;;;8.34;55.62
4570;BME280;2297;51.442;6.996;2023-03-14T11:24:18;98351.56;;;8.22;55.39
4570;BME280;2297;51.442;6.996;2023-03-14T11:26:56;98364.34;;;8.29;54.58
4570;BME280;2297;51.442;6.996;2023-03-14T11:29:41;98377.19;;;8.58;54.40
4570;BME280;2297;51.442;6.996;2023-03-14T11:32:13;98382.31;;;8.61;54.08
4570;BME280;2297;51.442;6.996;2023-03-14T11:34:45;98398.63;;;8.28;53.59
4570;BME280;2297;51.442;6.996;2023-03-14T11:37:23;98396.28;;;8.63;53.15
4570;BME280;2297;51.442;6.996;2023-03-14T11:39:57;98408.69;;;8.81;52.70
4570;BME280;2297;51.442;6.996;2023-03-14T11:42:26;98424.19;;;8.88;52.84
4570;BME280;2297;51.442;6.996;2023-03-14T11:44:55;98426.16;;;8.82;52.04
4570;BME280;2297;51.442;6.996;2023-03-14T11:47:24;98438.28;;;8.66;50.68
4570;BME280;2297;51.442;6.996;2023-03-14T11:49:57;98439.19;;;8.43;51.38
4570;BME280;2297;51.442;6.996;2023-03-14T11:52:30;98447.53;;;8.32;51.90
4570;BME280;2297;51.442;6.996;2023-03-14T11:55:00;98468.59;;;8.32;51.50
4570;BME280;2297;51.442;6.996;2023-03-14T11:57:31;98465.91;;;8.11;52.91
4570;BME280;2297;51.442;6.996;2023-03-14T12:00:02;98468.34;;;8.38;52.48
4570;BME280;2297;51.442;6.996;2023-03-14T12:02:38;98488.84;;;8.30;51.67
4570;BME280;2297;51.442;6.996;2023-03-14T12:05:30;98483.16;;;8.19;51.04
4570;BME280;2297;51.442;6.996;2023-03-14T12:11:00;98488.19;;;8.45;51.28
4570;BME280;2297;51.442;6.996;2023-03-14T12:13:29;98498.47;;;8.31;50.95
4570;BME280;2297;51.442;6.996;2023-03-14T12:16:00;98498.47;;;8.31;50.67
4570;BME280;2297;51.442;6.996;2023-03-14T12:18:28;98511.78;;;8.48;49.65
4570;BME280;2297;51.442;6.996;2023-03-14T12:20:58;98511.47;;;8.56;49.54
4570;BME280;2297;51.442;6.996;2023-03-14T12:23:33;98517.13;;;8.45;49.10
4570;BME280;2297;51.442;6.996;2023-03-14T12:26:13;98528.78;;;8.62;50.21
4570;BME280;2297;51.442;6.996;2023-03-14T12:29:14;98539.91;;;8.91;48.95
4570;BME280;2297;51.442;6.996;2023-03-14T12:31:43;98547.25;;;9.24;48.14
4570;BME280;2297;51.442;6.996;2023-03-14T12:34:28;98544.53;;;9.46;47.17
4570;BME280;2297;51.442;6.996;2023-03-14T12:37:00;98562.81;;;9.51;46.96
4570;BME280;2297;51.442;6.996;2023-03-14T12:39:37;98567.41;;;9.04;46.44
4570;BME280;2297;51.442;6.996;2023-03-14T12:42:10;98580.28;;;9.12;46.24
4570;BME280;2297;51.442;6.996;2023-03-14T12:44:45;98578.59;;;9.30;46.83
4570;BME280;2297;51.442;6.996;2023-03-14T12:48:03;98599.13;;;9.01;47.38
4570;BME280;2297;51.442;6.996;2023-03-14T12:50:34;98627.31;;;9.20;47.46
4570;BME280;2297;51.442;6.996;2023-03-14T12:56:21;98664.25;;;8.52;52.18
4570;BME280;2297;51.442;6.996;2023-03-14T12:58:59;98669.44;;;8.31;50.63
4570;BME280;2297;51.442;6.996;2023-03-14T13:01:27;98684.59;;;7.99;50.10
4570;BME280;2297;51.442;6.996;2023-03-14T13:03:56;98681.28;;;7.94;50.61
4570;BME280;2297;51.442;6.996;2023-03-14T13:06:47;98691.25;;;8.33;50.48
4570;BME280;2297;51.442;6.996;2023-03-14T13:09:36;98690.06;;;8.64;49.80
4570;BME280;2297;51.442;6.996;2023-03-14T13:12:09;98701.31;;;8.45;48.40
4570;BME280;2297;51.442;6.996;2023-03-14T13:14:40;98704.41;;;8.57;48.61
4570;BME280;2297;51.442;6.996;2023-03-14T13:17:26;98722.81;;;8.80;48.95
4570;BME280;2297;51.442;6.996;2023-03-14T13:19:56;98720.41;;;8.51;48.84
4570;BME280;2297;51.442;6.996;2023-03-14T13:22:26;98737.50;;;8.39;48.96
4570;BME280;2297;51.442;6.996;2023-03-14T13:25:00;98743.94;;;8.55;49.35
4570;BME280;2297;51.442;6.996;2023-03-14T13:27:32;98736.19;;;8.03;49.43
4570;BME280;2297;51.442;6.996;2023-03-14T13:30:05;98747.03;;;8.18;49.11
4570;BME280;2297;51.442;6.996;2023-03-14T13:32:32;98756.44;;;8.25;48.54
4570;BME280;2297;51.442;6.996;2023-03-14T13:34:59;98764.97;;;8.31;47.38
4570;BME280;2297;51.442;6.996;2023-03-14T13:37:26;98771.44;;;8.46;47.12
4570;BME280;2297;51.442;6.996;2023-03-14T13:39:54;98786.81;;;8.08;47.18
4570;BME280;2297;51.442;6.996;2023-03-14T13:42:24;98776.59;;;8.50;46.58
4570;BME280;2297;51.442;6.996;2023-03-14T13:44:55;98777.38;;;8.52;46.93
4570;BME280;2297;51.442;6.996;2023-03-14T13:47:24;98783.81;;;8.44;46.43
4570;BME280;2297;51.442;6.996;2023-03-14T13:49:51;98787.59;;;8.85;45.75
4570;BME280;2297;51.442;6.996;2023-03-14T13:52:23;98793.28;;;8.97;45.07
4570;BME280;2297;51.442;6.996;2023-03-14T13:54:53;98798.94;;;9.55;43.67
4570;BME280;2297;51.442;6.996;2023-03-14T13:57:20;98801.06;;;9.45;42.69